Terminal Aerodrome Forecast
Issued by NWS North Platte, NE

Home | Current Version | Previous Version | Text Only | Print | Product List | Glossary On
Versions: 1 2 3 4 5 6 7 8 9 10 11 12 13 14 15
000
FTUS43 KLBF 220500
TAFLBF
TAF
KLBF 220520Z 2206/2306 16012KT P6SM SKC
     FM221200 13006KT P6SM OVC100
     FM221500 25007KT 5SM -SHRA BR OVC025
     FM221800 33011KT P6SM OVC035
     FM230000 VRB02KT P6SM BKN050=

USA.gov is the U.S. government's official web portal to all federal, state and local government web resources and services.